sensor_id;sensor_type;location;lat;lon;timestamp;temperature;humidity
47338;DHT22;33069;51.970;5.892;2024-01-16T00:01:46;0.30;89.60
47338;DHT22;33069;51.970;5.892;2024-01-16T00:04:12;0.30;89.60
47338;DHT22;33069;51.970;5.892;2024-01-16T00:06:41;0.30;89.50
47338;DHT22;33069;51.970;5.892;2024-01-16T00:09:07;0.30;89.50
47338;DHT22;33069;51.970;5.892;2024-01-16T00:11:34;0.20;89.40
47338;DHT22;33069;51.970;5.892;2024-01-16T00:14:04;0.30;89.40
47338;DHT22;33069;51.970;5.892;2024-01-16T00:16:30;0.20;89.30
47338;DHT22;33069;51.970;5.892;2024-01-16T00:18:55;0.20;89.20
47338;DHT22;33069;51.970;5.892;2024-01-16T00:21:21;0.20;89.10
47338;DHT22;33069;51.970;5.892;2024-01-16T00:23:47;0.10;89.00
47338;DHT22;33069;51.970;5.892;2024-01-16T00:26:22;0.10;89.00
47338;DHT22;33069;51.970;5.892;2024-01-16T00:28:48;0.10;88.90
47338;DHT22;33069;51.970;5.892;2024-01-16T00:31:14;0.00;88.80
47338;DHT22;33069;51.970;5.892;2024-01-16T00:33:40;0.00;88.80
47338;DHT22;33069;51.970;5.892;2024-01-16T00:36:06;0.00;88.80
47338;DHT22;33069;51.970;5.892;2024-01-16T00:38:35;0.00;88.80
47338;DHT22;33069;51.970;5.892;2024-01-16T00:41:00;0.00;88.80
47338;DHT22;33069;51.970;5.892;2024-01-16T00:43:26;0.00;88.80
47338;DHT22;33069;51.970;5.892;2024-01-16T00:45:52;0.00;88.80
47338;DHT22;33069;51.970;5.892;2024-01-16T00:48:18;0.10;88.90
47338;DHT22;33069;51.970;5.892;2024-01-16T00:50:46;0.00;88.80
47338;DHT22;33069;51.970;5.892;2024-01-16T00:53:12;0.00;88.80
47338;DHT22;33069;51.970;5.892;2024-01-16T00:55:37;0.00;88.80
47338;DHT22;33069;51.970;5.892;2024-01-16T00:58:03;0.00;88.80
47338;DHT22;33069;51.970;5.892;2024-01-16T01:00:29;0.00;88.70
47338;DHT22;33069;51.970;5.892;2024-01-16T01:02:57;-3276.70;88.80
47338;DHT22;33069;51.970;5.892;2024-01-16T01:05:24;0.00;89.00
47338;DHT22;33069;51.970;5.892;2024-01-16T01:07:57;0.00;89.00
47338;DHT22;33069;51.970;5.892;2024-01-16T01:10:23;0.10;89.00
47338;DHT22;33069;51.970;5.892;2024-01-16T01:12:50;0.10;88.90
47338;DHT22;33069;51.970;5.892;2024-01-16T01:15:18;0.10;88.90
47338;DHT22;33069;51.970;5.892;2024-01-16T01:17:43;0.10;88.90
47338;DHT22;33069;51.970;5.892;2024-01-16T01:20:09;0.20;88.90
47338;DHT22;33069;51.970;5.892;2024-01-16T01:22:37;0.10;88.90
47338;DHT22;33069;51.970;5.892;2024-01-16T01:25:04;0.20;88.80
47338;DHT22;33069;51.970;5.892;2024-01-16T01:27:29;0.00;88.70
47338;DHT22;33069;51.970;5.892;2024-01-16T01:29:55;0.00;88.70
47338;DHT22;33069;51.970;5.892;2024-01-16T01:32:21;0.00;88.60
47338;DHT22;33069;51.970;5.892;2024-01-16T01:34:47;0.00;88.70
47338;DHT22;33069;51.970;5.892;2024-01-16T01:37:13;0.00;88.70
47338;DHT22;33069;51.970;5.892;2024-01-16T01:39:40;0.00;88.80
47338;DHT22;33069;51.970;5.892;2024-01-16T01:42:06;0.00;88.70
47338;DHT22;33069;51.970;5.892;2024-01-16T01:44:31;0.00;88.80
47338;DHT22;33069;51.970;5.892;2024-01-16T01:46:57;0.00;88.80
47338;DHT22;33069;51.970;5.892;2024-01-16T01:49:25;0.00;88.80
47338;DHT22;33069;51.970;5.892;2024-01-16T01:51:51;0.00;88.70
47338;DHT22;33069;51.970;5.892;2024-01-16T01:54:18;0.00;88.80
47338;DHT22;33069;51.970;5.892;2024-01-16T01:56:45;0.00;88.80
47338;DHT22;33069;51.970;5.892;2024-01-16T01:59:13;0.00;88.70
47338;DHT22;33069;51.970;5.892;2024-01-16T02:01:40;0.00;88.80
47338;DHT22;33069;51.970;5.892;2024-01-16T02:04:06;0.00;88.80
47338;DHT22;33069;51.970;5.892;2024-01-16T02:06:32;0.00;88.80
47338;DHT22;33069;51.970;5.892;2024-01-16T02:08:58;0.00;88.90
47338;DHT22;33069;51.970;5.892;2024-01-16T02:11:25;0.00;88.80
47338;DHT22;33069;51.970;5.892;2024-01-16T02:13:50;0.00;88.80
47338;DHT22;33069;51.970;5.892;2024-01-16T02:16:22;0.00;88.90
47338;DHT22;33069;51.970;5.892;2024-01-16T02:18:50;0.00;88.90
47338;DHT22;33069;51.970;5.892;2024-01-16T02:21:21;0.00;88.90
47338;DHT22;33069;51.970;5.892;2024-01-16T02:23:47;0.10;88.90
47338;DHT22;33069;51.970;5.892;2024-01-16T02:26:17;0.20;88.90
47338;DHT22;33069;51.970;5.892;2024-01-16T02:28:42;0.10;88.80
47338;DHT22;33069;51.970;5.892;2024-01-16T02:31:08;0.00;88.80
47338;DHT22;33069;51.970;5.892;2024-01-16T02:33:34;0.00;88.80
47338;DHT22;33069;51.970;5.892;2024-01-16T02:36:00;0.00;88.80
47338;DHT22;33069;51.970;5.892;2024-01-16T02:38:25;0.00;89.00
47338;DHT22;33069;51.970;5.892;2024-01-16T02:40:51;0.10;89.10
47338;DHT22;33069;51.970;5.892;2024-01-16T02:43:17;0.20;89.10
47338;DHT22;33069;51.970;5.892;2024-01-16T02:45:42;0.10;89.20
47338;DHT22;33069;51.970;5.892;2024-01-16T02:48:09;0.20;89.30
47338;DHT22;33069;51.970;5.892;2024-01-16T02:50:34;0.20;89.30
47338;DHT22;33069;51.970;5.892;2024-01-16T02:53:00;0.10;89.40
47338;DHT22;33069;51.970;5.892;2024-01-16T02:55:26;0.20;89.50
47338;DHT22;33069;51.970;5.892;2024-01-16T02:57:52;0.30;89.60
47338;DHT22;33069;51.970;5.892;2024-01-16T03:00:17;0.30;89.60
47338;DHT22;33069;51.970;5.892;2024-01-16T03:02:44;0.30;89.60
47338;DHT22;33069;51.970;5.892;2024-01-16T03:05:10;0.30;89.60
47338;DHT22;33069;51.970;5.892;2024-01-16T03:07:36;0.40;89.60
47338;DHT22;33069;51.970;5.892;2024-01-16T03:10:02;0.50;89.60
47338;DHT22;33069;51.970;5.892;2024-01-16T03:12:28;0.40;89.60
47338;DHT22;33069;51.970;5.892;2024-01-16T03:14:54;0.50;89.50
47338;DHT22;33069;51.970;5.892;2024-01-16T03:17:20;0.50;89.50
47338;DHT22;33069;51.970;5.892;2024-01-16T03:19:46;0.50;89.40
47338;DHT22;33069;51.970;5.892;2024-01-16T03:22:12;0.50;89.40
47338;DHT22;33069;51.970;5.892;2024-01-16T03:24:38;0.50;89.40
47338;DHT22;33069;51.970;5.892;2024-01-16T03:27:04;0.50;89.40
47338;DHT22;33069;51.970;5.892;2024-01-16T03:29:30;0.60;89.40
47338;DHT22;33069;51.970;5.892;2024-01-16T03:31:56;0.60;89.40
47338;DHT22;33069;51.970;5.892;2024-01-16T03:34:23;0.50;89.30
47338;DHT22;33069;51.970;5.892;2024-01-16T03:36:48;0.60;89.30
47338;DHT22;33069;51.970;5.892;2024-01-16T03:39:14;0.50;89.30
47338;DHT22;33069;51.970;5.892;2024-01-16T03:41:40;0.50;89.30
47338;DHT22;33069;51.970;5.892;2024-01-16T03:44:05;0.50;89.30
47338;DHT22;33069;51.970;5.892;2024-01-16T03:46:31;0.50;89.30
47338;DHT22;33069;51.970;5.892;2024-01-16T03:48:57;0.60;89.30
47338;DHT22;33069;51.970;5.892;2024-01-16T03:51:22;0.60;89.20
47338;DHT22;33069;51.970;5.892;2024-01-16T03:53:48;0.50;89.20
47338;DHT22;33069;51.970;5.892;2024-01-16T03:56:15;0.50;89.10
47338;DHT22;33069;51.970;5.892;2024-01-16T03:58:41;0.50;89.10
47338;DHT22;33069;51.970;5.892;2024-01-16T04:01:07;0.50;89.10
47338;DHT22;33069;51.970;5.892;2024-01-16T04:03:33;0.50;89.10
47338;DHT22;33069;51.970;5.892;2024-01-16T04:06:00;0.60;89.10
47338;DHT22;33069;51.970;5.892;2024-01-16T04:08:26;0.60;89.10
47338;DHT22;33069;51.970;5.892;2024-01-16T04:10:52;0.50;89.10
47338;DHT22;33069;51.970;5.892;2024-01-16T04:13:17;0.50;89.00
47338;DHT22;33069;51.970;5.892;2024-01-16T04:15:43;0.50;89.10
47338;DHT22;33069;51.970;5.892;2024-01-16T04:18:10;0.50;89.10
47338;DHT22;33069;51.970;5.892;2024-01-16T04:20:36;0.50;89.10
47338;DHT22;33069;51.970;5.892;2024-01-16T04:23:02;0.40;89.10
47338;DHT22;33069;51.970;5.892;2024-01-16T04:25:28;0.50;89.20
47338;DHT22;33069;51.970;5.892;2024-01-16T04:27:54;0.60;89.20
47338;DHT22;33069;51.970;5.892;2024-01-16T04:30:20;0.50;89.20
47338;DHT22;33069;51.970;5.892;2024-01-16T04:32:46;0.50;89.30
47338;DHT22;33069;51.970;5.892;2024-01-16T04:35:12;0.40;89.20
47338;DHT22;33069;51.970;5.892;2024-01-16T04:37:38;0.50;89.30
47338;DHT22;33069;51.970;5.892;2024-01-16T04:40:04;0.60;89.30
47338;DHT22;33069;51.970;5.892;2024-01-16T04:42:33;0.50;89.30
47338;DHT22;33069;51.970;5.892;2024-01-16T04:44:59;0.50;89.30
47338;DHT22;33069;51.970;5.892;2024-01-16T04:47:25;0.80;89.30
47338;DHT22;33069;51.970;5.892;2024-01-16T04:49:51;0.80;89.20
47338;DHT22;33069;51.970;5.892;2024-01-16T04:52:17;0.70;89.10
47338;DHT22;33069;51.970;5.892;2024-01-16T04:54:43;0.70;89.10
47338;DHT22;33069;51.970;5.892;2024-01-16T04:57:11;0.90;89.10
47338;DHT22;33069;51.970;5.892;2024-01-16T04:59:37;1.00;89.00
47338;DHT22;33069;51.970;5.892;2024-01-16T05:02:03;1.20;89.00
47338;DHT22;33069;51.970;5.892;2024-01-16T05:04:32;1.20;88.80
47338;DHT22;33069;51.970;5.892;2024-01-16T05:06:58;1.20;88.70
47338;DHT22;33069;51.970;5.892;2024-01-16T05:09:24;1.20;88.60
47338;DHT22;33069;51.970;5.892;2024-01-16T05:11:49;1.30;88.50
47338;DHT22;33069;51.970;5.892;2024-01-16T05:14:15;1.10;88.20
47338;DHT22;33069;51.970;5.892;2024-01-16T05:16:41;1.10;88.30
47338;DHT22;33069;51.970;5.892;2024-01-16T05:19:07;1.00;88.20
47338;DHT22;33069;51.970;5.892;2024-01-16T05:21:33;0.90;88.10
47338;DHT22;33069;51.970;5.892;2024-01-16T05:23:59;0.80;88.10
47338;DHT22;33069;51.970;5.892;2024-01-16T05:26:24;0.80;88.20
47338;DHT22;33069;51.970;5.892;2024-01-16T05:28:51;0.80;88.20
47338;DHT22;33069;51.970;5.892;2024-01-16T05:31:16;0.70;88.20
47338;DHT22;33069;51.970;5.892;2024-01-16T05:33:42;0.80;88.30
47338;DHT22;33069;51.970;5.892;2024-01-16T05:36:09;0.70;88.30
47338;DHT22;33069;51.970;5.892;2024-01-16T05:38:35;0.80;88.30
47338;DHT22;33069;51.970;5.892;2024-01-16T05:41:00;0.80;88.20
47338;DHT22;33069;51.970;5.892;2024-01-16T05:43:26;0.70;88.10
47338;DHT22;33069;51.970;5.892;2024-01-16T05:45:54;0.70;88.20
47338;DHT22;33069;51.970;5.892;2024-01-16T05:48:19;0.80;88.20
47338;DHT22;33069;51.970;5.892;2024-01-16T05:50:45;0.80;88.10
47338;DHT22;33069;51.970;5.892;2024-01-16T05:53:11;0.70;88.00
47338;DHT22;33069;51.970;5.892;2024-01-16T05:55:37;0.70;87.90
47338;DHT22;33069;51.970;5.892;2024-01-16T05:58:03;0.70;87.80
47338;DHT22;33069;51.970;5.892;2024-01-16T06:00:28;0.70;87.70
47338;DHT22;33069;51.970;5.892;2024-01-16T06:02:54;0.70;87.60
47338;DHT22;33069;51.970;5.892;2024-01-16T06:05:20;0.70;87.60
47338;DHT22;33069;51.970;5.892;2024-01-16T06:07:45;0.80;87.50
47338;DHT22;33069;51.970;5.892;2024-01-16T06:10:14;0.70;87.30
47338;DHT22;33069;51.970;5.892;2024-01-16T06:12:40;0.70;87.30
47338;DHT22;33069;51.970;5.892;2024-01-16T06:15:06;0.80;87.30
47338;DHT22;33069;51.970;5.892;2024-01-16T06:17:32;0.70;87.30
47338;DHT22;33069;51.970;5.892;2024-01-16T06:19:58;0.70;87.40
47338;DHT22;33069;51.970;5.892;2024-01-16T06:22:23;0.70;87.40
47338;DHT22;33069;51.970;5.892;2024-01-16T06:24:49;0.70;87.40
47338;DHT22;33069;51.970;5.892;2024-01-16T06:27:15;0.70;87.50
47338;DHT22;33069;51.970;5.892;2024-01-16T06:29:48;0.70;87.60
47338;DHT22;33069;51.970;5.892;2024-01-16T06:32:13;0.80;87.70
47338;DHT22;33069;51.970;5.892;2024-01-16T06:34:39;0.80;87.70
47338;DHT22;33069;51.970;5.892;2024-01-16T06:37:05;0.70;87.60
47338;DHT22;33069;51.970;5.892;2024-01-16T06:39:31;0.70;87.70
47338;DHT22;33069;51.970;5.892;2024-01-16T06:41:56;0.80;87.80
47338;DHT22;33069;51.970;5.892;2024-01-16T06:44:22;0.70;87.80
47338;DHT22;33069;51.970;5.892;2024-01-16T06:46:48;0.70;87.90
47338;DHT22;33069;51.970;5.892;2024-01-16T06:49:13;0.80;87.90
47338;DHT22;33069;51.970;5.892;2024-01-16T06:51:39;0.80;87.90
47338;DHT22;33069;51.970;5.892;2024-01-16T06:54:05;0.80;88.00
47338;DHT22;33069;51.970;5.892;2024-01-16T06:56:31;0.80;87.90
47338;DHT22;33069;51.970;5.892;2024-01-16T06:58:57;0.80;87.80
47338;DHT22;33069;51.970;5.892;2024-01-16T07:01:23;0.70;87.80
47338;DHT22;33069;51.970;5.892;2024-01-16T07:03:48;0.80;87.90
47338;DHT22;33069;51.970;5.892;2024-01-16T07:06:14;0.80;87.90
47338;DHT22;33069;51.970;5.892;2024-01-16T07:08:40;0.80;87.90
47338;DHT22;33069;51.970;5.892;2024-01-16T07:11:06;0.80;87.80
47338;DHT22;33069;51.970;5.892;2024-01-16T07:13:34;0.80;87.80
47338;DHT22;33069;51.970;5.892;2024-01-16T07:16:00;0.80;87.80
47338;DHT22;33069;51.970;5.892;2024-01-16T07:18:27;0.80;87.90
47338;DHT22;33069;51.970;5.892;2024-01-16T07:20:53;0.80;87.90
47338;DHT22;33069;51.970;5.892;2024-01-16T07:23:19;0.80;88.00
47338;DHT22;33069;51.970;5.892;2024-01-16T07:25:45;0.80;88.00
47338;DHT22;33069;51.970;5.892;2024-01-16T07:28:11;0.80;88.00
47338;DHT22;33069;51.970;5.892;2024-01-16T07:30:37;0.80;88.10
47338;DHT22;33069;51.970;5.892;2024-01-16T07:33:03;0.90;88.20
47338;DHT22;33069;51.970;5.892;2024-01-16T07:35:29;0.80;88.10
47338;DHT22;33069;51.970;5.892;2024-01-16T07:37:55;0.70;88.20
47338;DHT22;33069;51.970;5.892;2024-01-16T07:40:21;0.80;88.20
47338;DHT22;33069;51.970;5.892;2024-01-16T07:42:46;0.80;88.20
47338;DHT22;33069;51.970;5.892;2024-01-16T07:45:12;0.80;88.20
47338;DHT22;33069;51.970;5.892;2024-01-16T07:47:38;0.90;88.20
47338;DHT22;33069;51.970;5.892;2024-01-16T07:50:04;0.90;88.10
47338;DHT22;33069;51.970;5.892;2024-01-16T07:52:30;0.90;88.00
47338;DHT22;33069;51.970;5.892;2024-01-16T07:54:56;0.80;87.90
47338;DHT22;33069;51.970;5.892;2024-01-16T07:57:21;1.00;87.90
47338;DHT22;33069;51.970;5.892;2024-01-16T07:59:47;1.00;87.80
47338;DHT22;33069;51.970;5.892;2024-01-16T08:02:13;0.90;87.70
47338;DHT22;33069;51.970;5.892;2024-01-16T08:04:38;0.90;87.60
47338;DHT22;33069;51.970;5.892;2024-01-16T08:07:04;1.00;87.60
47338;DHT22;33069;51.970;5.892;2024-01-16T08:09:30;1.00;87.50
47338;DHT22;33069;51.970;5.892;2024-01-16T08:11:56;0.90;87.40
47338;DHT22;33069;51.970;5.892;2024-01-16T08:14:21;0.80;87.30
47338;DHT22;33069;51.970;5.892;2024-01-16T08:16:47;0.80;87.30
47338;DHT22;33069;51.970;5.892;2024-01-16T08:19:13;0.90;87.30
47338;DHT22;33069;51.970;5.892;2024-01-16T08:21:40;0.70;87.10
47338;DHT22;33069;51.970;5.892;2024-01-16T08:24:06;0.70;87.10
47338;DHT22;33069;51.970;5.892;2024-01-16T08:26:31;0.80;87.10
47338;DHT22;33069;51.970;5.892;2024-01-16T08:28:58;0.90;87.00
47338;DHT22;33069;51.970;5.892;2024-01-16T08:31:23;0.80;86.90
47338;DHT22;33069;51.970;5.892;2024-01-16T08:33:49;0.80;86.80
47338;DHT22;33069;51.970;5.892;2024-01-16T08:36:15;0.80;86.70
47338;DHT22;33069;51.970;5.892;2024-01-16T08:38:40;0.70;86.50
47338;DHT22;33069;51.970;5.892;2024-01-16T08:41:07;0.80;86.50
47338;DHT22;33069;51.970;5.892;2024-01-16T08:43:33;0.70;86.30
47338;DHT22;33069;51.970;5.892;2024-01-16T08:45:59;0.70;86.30
47338;DHT22;33069;51.970;5.892;2024-01-16T08:48:25;0.70;86.20
47338;DHT22;33069;51.970;5.892;2024-01-16T08:50:51;0.60;86.10
47338;DHT22;33069;51.970;5.892;2024-01-16T08:53:17;0.60;86.00
47338;DHT22;33069;51.970;5.892;2024-01-16T08:55:43;0.60;85.90
47338;DHT22;33069;51.970;5.892;2024-01-16T08:58:09;0.70;86.00
47338;DHT22;33069;51.970;5.892;2024-01-16T09:00:35;0.60;85.80
47338;DHT22;33069;51.970;5.892;2024-01-16T09:03:00;0.60;85.60
47338;DHT22;33069;51.970;5.892;2024-01-16T09:05:27;0.60;85.50
47338;DHT22;33069;51.970;5.892;2024-01-16T09:07:52;0.60;85.50
47338;DHT22;33069;51.970;5.892;2024-01-16T09:10:18;0.60;85.40
47338;DHT22;33069;51.970;5.892;2024-01-16T09:12:45;0.60;85.40
47338;DHT22;33069;51.970;5.892;2024-01-16T09:15:11;0.60;85.40
47338;DHT22;33069;51.970;5.892;2024-01-16T09:17:36;0.70;85.30
47338;DHT22;33069;51.970;5.892;2024-01-16T09:20:02;0.80;85.20
47338;DHT22;33069;51.970;5.892;2024-01-16T09:22:28;0.70;84.80
47338;DHT22;33069;51.970;5.892;2024-01-16T09:24:54;0.70;84.50
47338;DHT22;33069;51.970;5.892;2024-01-16T09:27:19;0.70;84.30
47338;DHT22;33069;51.970;5.892;2024-01-16T09:29:45;0.80;84.20
47338;DHT22;33069;51.970;5.892;2024-01-16T09:32:11;0.80;84.00
47338;DHT22;33069;51.970;5.892;2024-01-16T09:34:36;0.70;83.80
47338;DHT22;33069;51.970;5.892;2024-01-16T09:37:02;0.70;83.80
47338;DHT22;33069;51.970;5.892;2024-01-16T09:39:29;0.80;83.40
47338;DHT22;33069;51.970;5.892;2024-01-16T09:42:00;0.80;83.60
47338;DHT22;33069;51.970;5.892;2024-01-16T09:44:28;0.90;83.40
47338;DHT22;33069;51.970;5.892;2024-01-16T09:46:55;0.90;83.10
47338;DHT22;33069;51.970;5.892;2024-01-16T09:49:21;0.80;82.50
47338;DHT22;33069;51.970;5.892;2024-01-16T09:51:49;0.80;82.40
47338;DHT22;33069;51.970;5.892;2024-01-16T09:54:15;0.70;82.20
47338;DHT22;33069;51.970;5.892;2024-01-16T09:56:44;0.70;82.30
47338;DHT22;33069;51.970;5.892;2024-01-16T09:59:16;0.70;82.40
47338;DHT22;33069;51.970;5.892;2024-01-16T10:01:42;0.70;82.30
47338;DHT22;33069;51.970;5.892;2024-01-16T10:04:09;0.80;82.20
47338;DHT22;33069;51.970;5.892;2024-01-16T10:06:34;0.80;82.00
47338;DHT22;33069;51.970;5.892;2024-01-16T10:09:02;0.70;82.00
47338;DHT22;33069;51.970;5.892;2024-01-16T10:11:29;0.80;82.30
47338;DHT22;33069;51.970;5.892;2024-01-16T10:13:55;1.00;82.20
47338;DHT22;33069;51.970;5.892;2024-01-16T10:16:21;0.90;81.60
47338;DHT22;33069;51.970;5.892;2024-01-16T10:18:47;1.00;81.20
47338;DHT22;33069;51.970;5.892;2024-01-16T10:21:22;1.00;81.00
47338;DHT22;33069;51.970;5.892;2024-01-16T10:23:48;1.00;80.70
47338;DHT22;33069;51.970;5.892;2024-01-16T10:26:14;1.00;80.70
47338;DHT22;33069;51.970;5.892;2024-01-16T10:28:41;1.10;80.70
47338;DHT22;33069;51.970;5.892;2024-01-16T10:31:12;1.00;80.60
47338;DHT22;33069;51.970;5.892;2024-01-16T10:33:39;1.00;80.40
47338;DHT22;33069;51.970;5.892;2024-01-16T10:36:13;1.00;80.10
47338;DHT22;33069;51.970;5.892;2024-01-16T10:38:41;1.10;80.10
47338;DHT22;33069;51.970;5.892;2024-01-16T10:41:12;1.10;80.10
47338;DHT22;33069;51.970;5.892;2024-01-16T10:43:38;1.20;80.00
47338;DHT22;33069;51.970;5.892;2024-01-16T10:48:35;1.10;79.50
47338;DHT22;33069;51.970;5.892;2024-01-16T10:51:02;1.20;79.70
47338;DHT22;33069;51.970;5.892;2024-01-16T10:53:32;1.10;79.80
47338;DHT22;33069;51.970;5.892;2024-01-16T10:56:00;1.20;79.70
47338;DHT22;33069;51.970;5.892;2024-01-16T10:58:27;1.10;79.70
47338;DHT22;33069;51.970;5.892;2024-01-16T11:00:57;1.10;79.90
47338;DHT22;33069;51.970;5.892;2024-01-16T11:03:35;1.20;79.60
47338;DHT22;33069;51.970;5.892;2024-01-16T11:06:06;1.30;79.30
47338;DHT22;33069;51.970;5.892;2024-01-16T11:08:38;1.40;79.20
47338;DHT22;33069;51.970;5.892;2024-01-16T11:11:05;1.40;78.60
47338;DHT22;33069;51.970;5.892;2024-01-16T11:13:32;1.40;78.80
47338;DHT22;33069;51.970;5.892;2024-01-16T11:15:59;1.40;78.10
47338;DHT22;33069;51.970;5.892;2024-01-16T11:18:27;1.50;78.40
47338;DHT22;33069;51.970;5.892;2024-01-16T11:20:55;1.60;78.30
47338;DHT22;33069;51.970;5.892;2024-01-16T11:23:21;1.70;77.70
47338;DHT22;33069;51.970;5.892;2024-01-16T11:25:47;1.70;77.60
47338;DHT22;33069;51.970;5.892;2024-01-16T11:28:13;1.70;77.30
47338;DHT22;33069;51.970;5.892;2024-01-16T11:30:40;1.70;77.30
47338;DHT22;33069;51.970;5.892;2024-01-16T11:33:06;1.80;77.30
47338;DHT22;33069;51.970;5.892;2024-01-16T11:35:33;1.90;77.00
47338;DHT22;33069;51.970;5.892;2024-01-16T11:38:13;1.80;76.50
47338;DHT22;33069;51.970;5.892;2024-01-16T11:40:41;1.80;76.40
47338;DHT22;33069;51.970;5.892;2024-01-16T11:46:08;1.90;76.60
47338;DHT22;33069;51.970;5.892;2024-01-16T11:48:34;1.80;76.60
47338;DHT22;33069;51.970;5.892;2024-01-16T11:51:21;1.80;76.00
47338;DHT22;33069;51.970;5.892;2024-01-16T11:53:47;1.80;76.70
47338;DHT22;33069;51.970;5.892;2024-01-16T11:56:38;1.90;76.70
47338;DHT22;33069;51.970;5.892;2024-01-16T12:01:50;1.80;76.50
47338;DHT22;33069;51.970;5.892;2024-01-16T12:04:18;1.80;76.50
47338;DHT22;33069;51.970;5.892;2024-01-16T12:06:57;1.80;76.00
47338;DHT22;33069;51.970;5.892;2024-01-16T12:09:26;1.80;76.30
47338;DHT22;33069;51.970;5.892;2024-01-16T12:12:00;1.90;75.90
47338;DHT22;33069;51.970;5.892;2024-01-16T12:14:27;2.00;75.70
47338;DHT22;33069;51.970;5.892;2024-01-16T12:17:08;2.00;75.90
47338;DHT22;33069;51.970;5.892;2024-01-16T12:19:35;2.10;75.80
47338;DHT22;33069;51.970;5.892;2024-01-16T12:22:01;2.00;75.30
47338;DHT22;33069;51.970;5.892;2024-01-16T12:24:27;2.10;75.80
47338;DHT22;33069;51.970;5.892;2024-01-16T12:26:52;2.00;75.60
47338;DHT22;33069;51.970;5.892;2024-01-16T12:29:22;2.00;76.40
47338;DHT22;33069;51.970;5.892;2024-01-16T12:31:48;2.10;75.90
47338;DHT22;33069;51.970;5.892;2024-01-16T12:34:14;2.20;75.30
47338;DHT22;33069;51.970;5.892;2024-01-16T12:36:40;2.10;75.00
47338;DHT22;33069;51.970;5.892;2024-01-16T12:39:06;2.10;75.60
47338;DHT22;33069;51.970;5.892;2024-01-16T12:41:42;2.30;76.50
47338;DHT22;33069;51.970;5.892;2024-01-16T12:44:09;2.50;76.40
47338;DHT22;33069;51.970;5.892;2024-01-16T12:46:35;2.60;75.30
47338;DHT22;33069;51.970;5.892;2024-01-16T12:49:05;2.60;75.00
47338;DHT22;33069;51.970;5.892;2024-01-16T12:51:32;2.50;74.50
47338;DHT22;33069;51.970;5.892;2024-01-16T12:54:14;2.40;75.00
47338;DHT22;33069;51.970;5.892;2024-01-16T12:56:40;2.30;74.70
47338;DHT22;33069;51.970;5.892;2024-01-16T12:59:13;2.00;74.90
47338;DHT22;33069;51.970;5.892;2024-01-16T13:01:45;2.30;75.30
47338;DHT22;33069;51.970;5.892;2024-01-16T13:04:12;2.30;74.90
47338;DHT22;33069;51.970;5.892;2024-01-16T13:06:40;2.30;74.80
47338;DHT22;33069;51.970;5.892;2024-01-16T13:09:12;2.40;75.30
47338;DHT22;33069;51.970;5.892;2024-01-16T13:14:12;2.50;74.90
47338;DHT22;33069;51.970;5.892;2024-01-16T13:16:38;2.50;74.60
47338;DHT22;33069;51.970;5.892;2024-01-16T13:19:04;2.50;74.20
47338;DHT22;33069;51.970;5.892;2024-01-16T13:21:34;2.30;74.30
47338;DHT22;33069;51.970;5.892;2024-01-16T13:24:00;2.40;73.40
47338;DHT22;33069;51.970;5.892;2024-01-16T13:26:25;2.50;74.30
47338;DHT22;33069;51.970;5.892;2024-01-16T13:28:51;2.60;73.60
47338;DHT22;33069;51.970;5.892;2024-01-16T13:31:16;2.70;73.50
47338;DHT22;33069;51.970;5.892;2024-01-16T13:33:43;2.70;73.50
47338;DHT22;33069;51.970;5.892;2024-01-16T13:36:08;2.50;73.00
47338;DHT22;33069;51.970;5.892;2024-01-16T13:38:34;2.50;73.20
47338;DHT22;33069;51.970;5.892;2024-01-16T13:41:00;2.50;73.50
47338;DHT22;33069;51.970;5.892;2024-01-16T13:43:27;2.40;73.40
47338;DHT22;33069;51.970;5.892;2024-01-16T13:45:54;2.50;73.10
47338;DHT22;33069;51.970;5.892;2024-01-16T13:48:20;2.40;72.90
47338;DHT22;33069;51.970;5.892;2024-01-16T13:50:47;2.50;73.30
47338;DHT22;33069;51.970;5.892;2024-01-16T13:53:13;2.40;74.10
47338;DHT22;33069;51.970;5.892;2024-01-16T13:55:40;2.40;73.70
47338;DHT22;33069;51.970;5.892;2024-01-16T13:58:07;2.60;73.80
47338;DHT22;33069;51.970;5.892;2024-01-16T14:00:33;2.70;73.20
47338;DHT22;33069;51.970;5.892;2024-01-16T14:02:59;2.60;72.50
47338;DHT22;33069;51.970;5.892;2024-01-16T14:05:24;2.70;72.50
47338;DHT22;33069;51.970;5.892;2024-01-16T14:07:51;2.50;72.40
47338;DHT22;33069;51.970;5.892;2024-01-16T14:10:19;2.40;71.90
47338;DHT22;33069;51.970;5.892;2024-01-16T14:12:46;2.40;72.00
47338;DHT22;33069;51.970;5.892;2024-01-16T14:15:14;2.30;71.80
47338;DHT22;33069;51.970;5.892;2024-01-16T14:17:52;2.30;71.80
47338;DHT22;33069;51.970;5.892;2024-01-16T14:20:19;2.20;72.10
47338;DHT22;33069;51.970;5.892;2024-01-16T14:22:48;2.30;71.40
47338;DHT22;33069;51.970;5.892;2024-01-16T14:25:14;2.20;71.90
47338;DHT22;33069;51.970;5.892;2024-01-16T14:27:54;2.30;71.40
47338;DHT22;33069;51.970;5.892;2024-01-16T14:30:22;2.20;71.20
47338;DHT22;33069;51.970;5.892;2024-01-16T14:32:48;2.30;71.30
47338;DHT22;33069;51.970;5.892;2024-01-16T14:35:14;2.20;71.60
47338;DHT22;33069;51.970;5.892;2024-01-16T14:37:42;2.40;71.80
47338;DHT22;33069;51.970;5.892;2024-01-16T14:40:09;2.50;71.20
47338;DHT22;33069;51.970;5.892;2024-01-16T14:42:54;2.50;70.60
47338;DHT22;33069;51.970;5.892;2024-01-16T14:45:22;2.40;70.90
47338;DHT22;33069;51.970;5.892;2024-01-16T14:47:49;2.40;69.90
47338;DHT22;33069;51.970;5.892;2024-01-16T14:50:16;2.30;69.50
47338;DHT22;33069;51.970;5.892;2024-01-16T14:52:48;2.40;70.90
47338;DHT22;33069;51.970;5.892;2024-01-16T14:55:13;2.40;70.80
47338;DHT22;33069;51.970;5.892;2024-01-16T14:57:40;2.40;70.60
47338;DHT22;33069;51.970;5.892;2024-01-16T15:00:13;2.40;70.90
47338;DHT22;33069;51.970;5.892;2024-01-16T15:02:45;2.40;70.70
47338;DHT22;33069;51.970;5.892;2024-01-16T15:05:16;2.40;71.20
47338;DHT22;33069;51.970;5.892;2024-01-16T15:07:43;2.50;71.80
47338;DHT22;33069;51.970;5.892;2024-01-16T15:10:10;2.50;72.40
47338;DHT22;33069;51.970;5.892;2024-01-16T15:12:41;2.60;72.50
47338;DHT22;33069;51.970;5.892;2024-01-16T15:15:13;2.60;71.80
47338;DHT22;33069;51.970;5.892;2024-01-16T15:17:40;2.40;71.60
47338;DHT22;33069;51.970;5.892;2024-01-16T15:20:07;2.50;72.00
47338;DHT22;33069;51.970;5.892;2024-01-16T15:22:44;2.30;71.80
47338;DHT22;33069;51.970;5.892;2024-01-16T15:25:11;2.40;71.60
47338;DHT22;33069;51.970;5.892;2024-01-16T15:27:39;2.40;71.50
47338;DHT22;33069;51.970;5.892;2024-01-16T15:30:05;2.30;72.00
47338;DHT22;33069;51.970;5.892;2024-01-16T15:32:34;2.00;72.00
47338;DHT22;33069;51.970;5.892;2024-01-16T15:34:59;2.00;72.20
47338;DHT22;33069;51.970;5.892;2024-01-16T15:37:26;2.00;72.60
47338;DHT22;33069;51.970;5.892;2024-01-16T15:39:52;1.80;72.60
47338;DHT22;33069;51.970;5.892;2024-01-16T15:42:18;1.90;72.90
47338;DHT22;33069;51.970;5.892;2024-01-16T15:44:44;1.90;73.10
47338;DHT22;33069;51.970;5.892;2024-01-16T15:47:09;1.80;73.70
47338;DHT22;33069;51.970;5.892;2024-01-16T15:49:36;1.70;73.90
47338;DHT22;33069;51.970;5.892;2024-01-16T15:52:02;1.70;73.80
47338;DHT22;33069;51.970;5.892;2024-01-16T15:54:28;1.60;73.60